This is the latest recevied weather packets stored in our database for station/object EA2FT-7. If no packets are shown the sender has not sent any weather packets the latest 10 day(s).
| Time | Temp. | Humidity | Pressure | Rain* | Wind** | Luminosity | Snow |
|---|---|---|---|---|---|---|---|
| 1777383124 | 33.33° C | 29% | 964.2 hPa | - | - | - | - |
| 1777382824 | 33.33° C | 29% | 964.3 hPa | - | - | - | - |
| 1777382524 | 32.78° C | 29% | 964.4 hPa | - | - | - | - |
| 1777382224 | 32.22° C | 29% | 964.4 hPa | - | - | - | - |
| 1777381624 | 31.67° C | 29% | 964.6 hPa | - | - | - | - |
| 1777381324 | 31.67° C | 29% | 964.6 hPa | - | - | - | - |
| 1777381024 | 31.11° C | 29% | 964.7 hPa | - | - | - | - |
| 1777380724 | 31.67° C | 28% | 964.7 hPa | - | - | - | - |
| 1777380423 | 31.67° C | 29% | 964.9 hPa | - | - | - | - |
| 1777379818 | 29.44° C | 31% | 975.9 hPa | - | - | - | - |
| 1777379518 | 28.33° C | 33% | 980 hPa | - | - | - | - |
| 1777379218 | 26.67° C | 34% | 987.9 hPa | - | - | - | - |
| 1777356623 | 21.11° C | 34% | 971.5 hPa | - | - | - | - |
| 1777311165 | 33.33° C | 28% | 966.9 hPa | - | - | - | - |
| 1777310565 | 33.33° C | 28% | 967.1 hPa | - | - | - | - |
| 1777310265 | 33.33° C | 28% | 966.9 hPa | - | - | - | - |
| 1777306665 | 33.33° C | 27% | 967.1 hPa | - | - | - | - |
| 1777306365 | 33.89° C | 27% | 967.2 hPa | - | - | - | - |
| 1777304564 | 33.89° C | 26% | 967.4 hPa | - | - | - | - |
| 1777299758 | 30.56° C | 31% | 981 hPa | - | - | - | - |
| 1777299457 | 28.33° C | 33% | 990.6 hPa | - | - | - | - |
| 1777270304 | 21.67° C | 33% | 976.1 hPa | - | - | - | - |
| 1777270004 | 18.89° C | 34% | 973.7 hPa | - | - | - | - |
| 1777237485 | 30° C | 27% | 971.5 hPa | - | - | - | - |
| 1777237185 | 30.56° C | 27% | 971.4 hPa | - | - | - | - |
* Rain since midnight (hover to see other rain measurements)
** Current wind speed in m/s (hover to see current wind gust speed)